sensor_id;sensor_type;location;lat;lon;timestamp;pressure;altitude;pressure_sealevel;temperature;humidity
22657;BME280;11495;55.610;12.100;2022-11-15T00:00:19;101117.94;;;8.83;0.00
22657;BME280;11495;55.610;12.100;2022-11-15T00:02:44;101117.47;;;8.86;0.00
22657;BME280;11495;55.610;12.100;2022-11-15T00:05:09;101120.69;;;8.83;0.00
22657;BME280;11495;55.610;12.100;2022-11-15T00:07:35;101117.12;;;8.82;0.00
22657;BME280;11495;55.610;12.100;2022-11-15T00:10:00;101101.75;;;8.81;0.00
22657;BME280;11495;55.610;12.100;2022-11-15T00:12:27;101109.72;;;8.83;0.00
22657;BME280;11495;55.610;12.100;2022-11-15T00:14:52;101105.84;;;8.79;0.00
22657;BME280;11495;55.610;12.100;2022-11-15T00:17:18;101102.59;;;8.82;0.00
22657;BME280;11495;55.610;12.100;2022-11-15T00:19:43;101100.94;;;8.81;0.00
22657;BME280;11495;55.610;12.100;2022-11-15T00:22:08;101105.06;;;8.83;0.00
22657;BME280;11495;55.610;12.100;2022-11-15T00:24:33;101102.06;;;8.85;0.00
22657;BME280;11495;55.610;12.100;2022-11-15T00:26:59;101104.56;;;8.86;0.00
22657;BME280;11495;55.610;12.100;2022-11-15T00:29:24;101104.31;;;8.88;0.00
22657;BME280;11495;55.610;12.100;2022-11-15T00:31:49;101103.97;;;8.84;0.00
22657;BME280;11495;55.610;12.100;2022-11-15T00:34:14;101109.53;;;8.89;0.00
22657;BME280;11495;55.610;12.100;2022-11-15T00:36:40;101110.44;;;8.95;0.00
22657;BME280;11495;55.610;12.100;2022-11-15T00:39:05;101100.56;;;8.94;0.00
22657;BME280;11495;55.610;12.100;2022-11-15T00:41:31;101092.88;;;8.96;0.00
22657;BME280;11495;55.610;12.100;2022-11-15T00:43:56;101094.47;;;8.92;0.00
22657;BME280;11495;55.610;12.100;2022-11-15T00:46:21;101089.81;;;8.92;0.00
22657;BME280;11495;55.610;12.100;2022-11-15T00:48:46;101085.16;;;8.93;0.00
22657;BME280;11495;55.610;12.100;2022-11-15T00:51:12;101076.69;;;8.94;0.00
22657;BME280;11495;55.610;12.100;2022-11-15T00:53:37;101080.00;;;8.96;0.00
22657;BME280;11495;55.610;12.100;2022-11-15T00:56:02;101075.34;;;8.97;0.00
22657;BME280;11495;55.610;12.100;2022-11-15T00:58:28;101090.41;;;8.94;0.00
22657;BME280;11495;55.610;12.100;2022-11-15T01:00:53;101078.59;;;8.94;0.00
22657;BME280;11495;55.610;12.100;2022-11-15T01:03:19;101093.44;;;8.98;0.00
22657;BME280;11495;55.610;12.100;2022-11-15T01:05:45;101091.53;;;8.98;0.00
22657;BME280;11495;55.610;12.100;2022-11-15T01:08:14;101090.13;;;8.96;0.00
22657;BME280;11495;55.610;12.100;2022-11-15T01:10:40;101097.28;;;8.97;0.00
22657;BME280;11495;55.610;12.100;2022-11-15T01:13:05;101095.63;;;8.96;0.00
22657;BME280;11495;55.610;12.100;2022-11-15T01:15:30;101095.09;;;8.99;0.00
22657;BME280;11495;55.610;12.100;2022-11-15T01:17:56;101087.97;;;8.98;0.00
22657;BME280;11495;55.610;12.100;2022-11-15T01:20:21;101084.66;;;8.96;0.00
22657;BME280;11495;55.610;12.100;2022-11-15T01:22:46;101091.78;;;8.97;0.00
22657;BME280;11495;55.610;12.100;2022-11-15T01:25:11;101087.13;;;8.97;0.00
22657;BME280;11495;55.610;12.100;2022-11-15T01:27:37;101077.53;;;9.00;0.00
22657;BME280;11495;55.610;12.100;2022-11-15T01:30:02;101068.75;;;8.98;0.00
22657;BME280;11495;55.610;12.100;2022-11-15T01:32:28;101066.28;;;8.96;0.00
22657;BME280;11495;55.610;12.100;2022-11-15T01:34:54;101063.22;;;8.93;0.00
22657;BME280;11495;55.610;12.100;2022-11-15T01:37:19;101060.16;;;8.89;0.00
22657;BME280;11495;55.610;12.100;2022-11-15T01:39:44;101048.62;;;8.87;0.00
22657;BME280;11495;55.610;12.100;2022-11-15T01:42:12;101028.00;;;8.85;0.00
22657;BME280;11495;55.610;12.100;2022-11-15T01:44:39;101032.91;;;8.78;0.00
22657;BME280;11495;55.610;12.100;2022-11-15T01:47:39;101036.97;;;8.75;0.00
22657;BME280;11495;55.610;12.100;2022-11-15T01:50:08;101030.94;;;8.73;0.00
22657;BME280;11495;55.610;12.100;2022-11-15T01:52:34;101030.09;;;8.72;0.00
22657;BME280;11495;55.610;12.100;2022-11-15T01:55:34;101038.38;;;8.78;0.00
22657;BME280;11495;55.610;12.100;2022-11-15T01:57:57;101029.06;;;8.79;0.00
22657;BME280;11495;55.610;12.100;2022-11-15T02:00:24;101036.78;;;8.82;0.00
22657;BME280;11495;55.610;12.100;2022-11-15T02:02:50;101026.87;;;8.81;0.00
22657;BME280;11495;55.610;12.100;2022-11-15T02:05:15;101023.31;;;8.80;0.00
22657;BME280;11495;55.610;12.100;2022-11-15T02:07:40;101022.50;;;8.80;0.00
22657;BME280;11495;55.610;12.100;2022-11-15T02:10:39;101022.22;;;8.81;0.00
22657;BME280;11495;55.610;12.100;2022-11-15T02:12:58;101015.63;;;8.77;0.00
22657;BME280;11495;55.610;12.100;2022-11-15T02:15:27;101021.41;;;8.81;0.00
22657;BME280;11495;55.610;12.100;2022-11-15T02:28:45;100993.88;;;8.70;0.00
22657;BME280;11495;55.610;12.100;2022-11-15T02:36:49;100953.00;;;8.42;0.00
22657;BME280;11495;55.610;12.100;2022-11-15T02:42:04;100953.03;;;8.20;0.00
22657;BME280;11495;55.610;12.100;2022-11-15T02:44:52;100947.41;;;8.10;0.00
22657;BME280;11495;55.610;12.100;2022-11-15T02:47:20;100936.59;;;7.98;0.00
22657;BME280;11495;55.610;12.100;2022-11-15T02:49:48;100931.75;;;7.83;0.00
22657;BME280;11495;55.610;12.100;2022-11-15T02:52:19;100940.09;;;7.72;0.00
22657;BME280;11495;55.610;12.100;2022-11-15T02:54:58;100935.56;;;7.60;0.00
22657;BME280;11495;55.610;12.100;2022-11-15T02:57:50;100921.00;;;7.55;0.00
22657;BME280;11495;55.610;12.100;2022-11-15T03:00:10;100919.91;;;7.56;0.00
22657;BME280;11495;55.610;12.100;2022-11-15T03:10:13;100900.16;;;7.98;0.00
22657;BME280;11495;55.610;12.100;2022-11-15T03:12:47;100901.06;;;8.03;0.00
22657;BME280;11495;55.610;12.100;2022-11-15T03:15:21;100903.28;;;8.06;0.00
22657;BME280;11495;55.610;12.100;2022-11-15T03:18:35;100907.22;;;8.15;0.00
22657;BME280;11495;55.610;12.100;2022-11-15T03:20:34;100902.44;;;8.28;0.00
22657;BME280;11495;55.610;12.100;2022-11-15T03:23:01;100884.94;;;8.34;0.00
22657;BME280;11495;55.610;12.100;2022-11-15T03:25:28;100880.09;;;8.41;0.00
22657;BME280;11495;55.610;12.100;2022-11-15T03:27:55;100868.06;;;8.42;0.00
22657;BME280;11495;55.610;12.100;2022-11-15T03:30:22;100860.97;;;8.46;0.00
22657;BME280;11495;55.610;12.100;2022-11-15T03:32:51;100859.34;;;8.50;0.00
22657;BME280;11495;55.610;12.100;2022-11-15T03:35:21;100872.03;;;8.56;0.00
22657;BME280;11495;55.610;12.100;2022-11-15T03:40:26;100854.56;;;8.67;0.00
22657;BME280;11495;55.610;12.100;2022-11-15T03:45:28;100846.94;;;8.69;0.00
22657;BME280;11495;55.610;12.100;2022-11-15T03:47:58;100835.38;;;8.67;0.00
22657;BME280;11495;55.610;12.100;2022-11-15T03:50:25;100823.84;;;8.65;0.00
22657;BME280;11495;55.610;12.100;2022-11-15T03:52:51;100814.50;;;8.61;0.00
22657;BME280;11495;55.610;12.100;2022-11-15T03:55:19;100807.34;;;8.60;0.00
22657;BME280;11495;55.610;12.100;2022-11-15T03:57:46;100820.56;;;8.63;0.00
22657;BME280;11495;55.610;12.100;2022-11-15T04:00:13;100809.06;;;8.66;0.00
22657;BME280;11495;55.610;12.100;2022-11-15T04:02:38;100813.22;;;8.69;0.00
22657;BME280;11495;55.610;12.100;2022-11-15T04:05:03;100808.53;;;8.69;0.00
22657;BME280;11495;55.610;12.100;2022-11-15T04:07:29;100816.22;;;8.72;0.00
22657;BME280;11495;55.610;12.100;2022-11-15T04:09:54;100822.53;;;8.73;0.00
22657;BME280;11495;55.610;12.100;2022-11-15T04:12:32;100833.72;;;8.66;0.00
22657;BME280;11495;55.610;12.100;2022-11-15T04:15:03;100815.34;;;8.62;0.00
22657;BME280;11495;55.610;12.100;2022-11-15T04:17:35;100807.34;;;8.60;0.00
22657;BME280;11495;55.610;12.100;2022-11-15T04:20:01;100809.28;;;8.60;0.00
22657;BME280;11495;55.610;12.100;2022-11-15T04:22:45;100819.19;;;8.61;0.00
22657;BME280;11495;55.610;12.100;2022-11-15T04:25:29;100822.16;;;8.59;0.00
22657;BME280;11495;55.610;12.100;2022-11-15T04:27:55;100829.59;;;8.64;0.00
22657;BME280;11495;55.610;12.100;2022-11-15T04:30:20;100825.22;;;8.68;0.00
22657;BME280;11495;55.610;12.100;2022-11-15T04:32:45;100836.53;;;8.71;0.00
22657;BME280;11495;55.610;12.100;2022-11-15T04:35:10;100840.13;;;8.77;0.00
22657;BME280;11495;55.610;12.100;2022-11-15T04:37:36;100843.37;;;8.74;0.00
22657;BME280;11495;55.610;12.100;2022-11-15T04:40:02;100830.22;;;8.76;0.00
22657;BME280;11495;55.610;12.100;2022-11-15T04:42:27;100831.09;;;8.82;0.00
22657;BME280;11495;55.610;12.100;2022-11-15T04:44:52;100831.72;;;8.89;0.00
22657;BME280;11495;55.610;12.100;2022-11-15T04:47:17;100835.81;;;8.91;0.00
22657;BME280;11495;55.610;12.100;2022-11-15T04:49:43;100835.56;;;8.93;0.00
22657;BME280;11495;55.610;12.100;2022-11-15T04:52:09;100835.88;;;8.96;0.00
22657;BME280;11495;55.610;12.100;2022-11-15T04:54:34;100840.53;;;9.01;0.00
22657;BME280;11495;55.610;12.100;2022-11-15T04:56:59;100834.56;;;9.04;0.00
22657;BME280;11495;55.610;12.100;2022-11-15T04:59:25;100842.50;;;9.06;0.00
22657;BME280;11495;55.610;12.100;2022-11-15T05:01:50;100844.97;;;9.07;0.00
22657;BME280;11495;55.610;12.100;2022-11-15T05:04:15;100842.25;;;9.07;0.00
22657;BME280;11495;55.610;12.100;2022-11-15T05:06:44;100847.22;;;9.10;0.00
22657;BME280;11495;55.610;12.100;2022-11-15T05:09:09;100841.97;;;9.09;0.00
22657;BME280;11495;55.610;12.100;2022-11-15T05:11:35;100849.09;;;9.10;0.00
22657;BME280;11495;55.610;12.100;2022-11-15T05:14:00;100837.88;;;9.11;0.00
22657;BME280;11495;55.610;12.100;2022-11-15T05:16:26;100833.50;;;9.10;0.00
22657;BME280;11495;55.610;12.100;2022-11-15T05:18:54;100836.78;;;9.12;0.00
22657;BME280;11495;55.610;12.100;2022-11-15T05:21:20;100831.84;;;9.14;0.00
22657;BME280;11495;55.610;12.100;2022-11-15T05:23:45;100835.97;;;9.12;0.00
22657;BME280;11495;55.610;12.100;2022-11-15T05:26:15;100836.25;;;9.15;0.00
22657;BME280;11495;55.610;12.100;2022-11-15T05:28:41;100844.50;;;9.15;0.00
22657;BME280;11495;55.610;12.100;2022-11-15T05:31:07;100837.63;;;9.13;0.00
22657;BME280;11495;55.610;12.100;2022-11-15T05:33:33;100836.75;;;9.07;0.00
22657;BME280;11495;55.610;12.100;2022-11-15T05:36:02;100837.03;;;9.06;0.00
22657;BME280;11495;55.610;12.100;2022-11-15T05:38:27;100851.28;;;9.08;0.00
22657;BME280;11495;55.610;12.100;2022-11-15T05:40:53;100855.97;;;9.07;0.00
22657;BME280;11495;55.610;12.100;2022-11-15T05:43:19;100853.22;;;9.07;0.00
22657;BME280;11495;55.610;12.100;2022-11-15T05:45:44;100859.78;;;9.06;0.00
22657;BME280;11495;55.610;12.100;2022-11-15T05:48:10;100859.78;;;9.06;0.00
22657;BME280;11495;55.610;12.100;2022-11-15T05:50:36;100851.28;;;9.08;0.00
22657;BME280;11495;55.610;12.100;2022-11-15T05:53:02;100849.38;;;9.08;0.00
22657;BME280;11495;55.610;12.100;2022-11-15T05:55:28;100849.97;;;9.10;0.00
22657;BME280;11495;55.610;12.100;2022-11-15T05:57:53;100849.41;;;9.13;0.00
22657;BME280;11495;55.610;12.100;2022-11-15T06:00:18;100856.00;;;9.12;0.00
22657;BME280;11495;55.610;12.100;2022-11-15T06:02:44;100858.19;;;9.10;0.00
22657;BME280;11495;55.610;12.100;2022-11-15T06:05:09;100851.28;;;9.08;0.00
22657;BME280;11495;55.610;12.100;2022-11-15T06:07:34;100855.97;;;9.07;0.00
22657;BME280;11495;55.610;12.100;2022-11-15T06:10:00;100851.00;;;9.04;0.00
22657;BME280;11495;55.610;12.100;2022-11-15T06:12:25;100847.16;;;9.05;0.00
22657;BME280;11495;55.610;12.100;2022-11-15T06:14:50;100847.16;;;9.05;0.00
22657;BME280;11495;55.610;12.100;2022-11-15T06:17:15;100839.50;;;9.07;0.00
22657;BME280;11495;55.610;12.100;2022-11-15T06:19:41;100845.53;;;9.09;0.00
22657;BME280;11495;55.610;12.100;2022-11-15T06:22:06;100834.00;;;9.07;0.00
22657;BME280;11495;55.610;12.100;2022-11-15T06:24:31;100818.94;;;9.10;0.00
22657;BME280;11495;55.610;12.100;2022-11-15T06:26:57;100825.28;;;9.10;0.00
22657;BME280;11495;55.610;12.100;2022-11-15T06:29:22;100832.41;;;9.11;0.00
22657;BME280;11495;55.610;12.100;2022-11-15T06:31:48;100852.16;;;9.13;0.00
22657;BME280;11495;55.610;12.100;2022-11-15T06:34:13;100848.59;;;9.13;0.00
22657;BME280;11495;55.610;12.100;2022-11-15T06:36:38;100845.56;;;9.14;0.00
22657;BME280;11495;55.610;12.100;2022-11-15T06:39:04;100829.13;;;9.14;0.00
22657;BME280;11495;55.610;12.100;2022-11-15T06:41:29;100836.56;;;9.19;0.00
22657;BME280;11495;55.610;12.100;2022-11-15T06:43:55;100839.03;;;9.20;0.00
22657;BME280;11495;55.610;12.100;2022-11-15T06:46:21;100840.13;;;9.19;0.00
22657;BME280;11495;55.610;12.100;2022-11-15T06:48:46;100847.78;;;9.17;0.00
22657;BME280;11495;55.610;12.100;2022-11-15T06:51:11;100862.91;;;9.20;0.00
22657;BME280;11495;55.610;12.100;2022-11-15T06:53:37;100856.31;;;9.21;0.00
22657;BME280;11495;55.610;12.100;2022-11-15T06:56:05;100858.25;;;9.25;0.00
22657;BME280;11495;55.610;12.100;2022-11-15T06:58:31;100858.78;;;9.22;0.00
22657;BME280;11495;55.610;12.100;2022-11-15T07:01:00;100859.91;;;9.26;0.00
22657;BME280;11495;55.610;12.100;2022-11-15T07:03:27;100863.75;;;9.25;0.00
22657;BME280;11495;55.610;12.100;2022-11-15T07:05:53;100861.31;;;9.29;0.00
22657;BME280;11495;55.610;12.100;2022-11-15T07:08:19;100862.12;;;9.29;0.00
22657;BME280;11495;55.610;12.100;2022-11-15T07:10:45;100874.75;;;9.31;0.00
22657;BME280;11495;55.610;12.100;2022-11-15T07:13:10;100870.66;;;9.28;0.00
22657;BME280;11495;55.610;12.100;2022-11-15T07:15:35;100888.19;;;9.27;0.00
22657;BME280;11495;55.610;12.100;2022-11-15T07:18:01;100887.66;;;9.30;0.00
22657;BME280;11495;55.610;12.100;2022-11-15T07:20:26;100886.56;;;9.31;0.00
22657;BME280;11495;55.610;12.100;2022-11-15T07:22:55;100897.00;;;9.34;0.00
22657;BME280;11495;55.610;12.100;2022-11-15T07:25:24;100898.91;;;9.34;0.00
22657;BME280;11495;55.610;12.100;2022-11-15T07:27:56;100898.09;;;9.33;0.00
22657;BME280;11495;55.610;12.100;2022-11-15T07:30:21;100902.75;;;9.33;0.00
22657;BME280;11495;55.610;12.100;2022-11-15T07:32:46;100906.31;;;9.28;0.00
22657;BME280;11495;55.610;12.100;2022-11-15T07:35:12;100906.00;;;9.24;0.00
22657;BME280;11495;55.610;12.100;2022-11-15T07:37:37;100910.97;;;9.27;0.00
22657;BME280;11495;55.610;12.100;2022-11-15T07:40:02;100917.28;;;9.28;0.00
22657;BME280;11495;55.610;12.100;2022-11-15T07:42:28;100929.91;;;9.29;0.00
22657;BME280;11495;55.610;12.100;2022-11-15T07:45:14;100939.75;;;9.25;0.00
22657;BME280;11495;55.610;12.100;2022-11-15T07:47:39;100932.56;;;9.14;0.00
22657;BME280;11495;55.610;12.100;2022-11-15T07:50:05;100924.53;;;9.07;0.00
22657;BME280;11495;55.610;12.100;2022-11-15T07:52:30;100932.47;;;9.04;0.00
22657;BME280;11495;55.610;12.100;2022-11-15T07:54:55;100935.50;;;9.02;0.00
22657;BME280;11495;55.610;12.100;2022-11-15T07:57:21;100939.00;;;8.97;0.00
22657;BME280;11495;55.610;12.100;2022-11-15T07:59:46;100941.47;;;8.94;0.00
22657;BME280;11495;55.610;12.100;2022-11-15T08:02:11;100932.69;;;8.97;0.00
22657;BME280;11495;55.610;12.100;2022-11-15T08:04:36;100940.66;;;8.98;0.00
22657;BME280;11495;55.610;12.100;2022-11-15T08:07:02;100917.28;;;8.91;0.00
22657;BME280;11495;55.610;12.100;2022-11-15T08:09:27;100924.94;;;8.89;0.00
22657;BME280;11495;55.610;12.100;2022-11-15T08:11:52;100931.53;;;8.88;0.00
22657;BME280;11495;55.610;12.100;2022-11-15T08:14:18;100929.81;;;8.82;0.00
22657;BME280;11495;55.610;12.100;2022-11-15T08:16:43;100929.00;;;8.81;0.00
22657;BME280;11495;55.610;12.100;2022-11-15T08:19:08;100926.53;;;8.80;0.00
22657;BME280;11495;55.610;12.100;2022-11-15T08:21:33;100934.19;;;8.78;0.00
22657;BME280;11495;55.610;12.100;2022-11-15T08:24:00;100929.22;;;8.75;0.00
22657;BME280;11495;55.610;12.100;2022-11-15T08:26:25;100927.25;;;8.70;0.00
22657;BME280;11495;55.610;12.100;2022-11-15T08:28:54;100933.22;;;8.62;0.00
22657;BME280;11495;55.610;12.100;2022-11-15T08:31:19;100926.66;;;8.63;0.00
22657;BME280;11495;55.610;12.100;2022-11-15T08:33:44;100934.06;;;8.67;0.00
22657;BME280;11495;55.610;12.100;2022-11-15T08:36:13;100923.09;;;8.67;0.00
22657;BME280;11495;55.610;12.100;2022-11-15T08:38:39;100920.91;;;8.64;0.00
22657;BME280;11495;55.610;12.100;2022-11-15T08:41:05;100922.50;;;8.60;0.00
22657;BME280;11495;55.610;12.100;2022-11-15T08:43:31;100930.94;;;8.54;0.00
22657;BME280;11495;55.610;12.100;2022-11-15T08:45:56;100922.13;;;8.52;0.00
22657;BME280;11495;55.610;12.100;2022-11-15T08:48:22;100913.09;;;8.51;0.00
22657;BME280;11495;55.610;12.100;2022-11-15T08:50:47;100925.66;;;8.47;0.00
22657;BME280;11495;55.610;12.100;2022-11-15T08:53:12;100924.84;;;8.47;0.00
22657;BME280;11495;55.610;12.100;2022-11-15T08:55:38;100930.00;;;8.43;0.00
22657;BME280;11495;55.610;12.100;2022-11-15T08:58:04;100924.28;;;8.44;0.00
22657;BME280;11495;55.610;12.100;2022-11-15T09:00:29;100931.16;;;8.47;0.00
22657;BME280;11495;55.610;12.100;2022-11-15T09:02:55;100937.72;;;8.46;0.00
22657;BME280;11495;55.610;12.100;2022-11-15T09:05:20;100929.75;;;8.44;0.00
22657;BME280;11495;55.610;12.100;2022-11-15T09:07:45;100930.88;;;8.49;0.00
22657;BME280;11495;55.610;12.100;2022-11-15T09:10:11;100932.28;;;8.51;0.00
22657;BME280;11495;55.610;12.100;2022-11-15T09:12:36;100930.12;;;8.53;0.00
22657;BME280;11495;55.610;12.100;2022-11-15T09:15:02;100929.50;;;8.46;0.00
22657;BME280;11495;55.610;12.100;2022-11-15T09:17:30;100933.34;;;8.50;0.00
22657;BME280;11495;55.610;12.100;2022-11-15T09:19:55;100936.06;;;8.45;0.00
22657;BME280;11495;55.610;12.100;2022-11-15T09:22:21;100937.72;;;8.46;0.00
22657;BME280;11495;55.610;12.100;2022-11-15T09:24:46;100936.06;;;8.45;0.00
22657;BME280;11495;55.610;12.100;2022-11-15T09:27:11;100931.91;;;8.42;0.00
22657;BME280;11495;55.610;12.100;2022-11-15T09:29:38;100936.94;;;8.51;0.00
22657;BME280;11495;55.610;12.100;2022-11-15T09:32:03;100937.75;;;8.51;0.00
22657;BME280;11495;55.610;12.100;2022-11-15T09:34:29;100947.12;;;8.55;0.00
22657;BME280;11495;55.610;12.100;2022-11-15T09:36:57;100941.66;;;8.55;0.00
22657;BME280;11495;55.610;12.100;2022-11-15T09:39:22;100940.75;;;8.50;0.00
22657;BME280;11495;55.610;12.100;2022-11-15T09:49:10;100953.06;;;8.47;0.00
22657;BME280;11495;55.610;12.100;2022-11-15T09:51:38;100947.62;;;8.52;0.00
22657;BME280;11495;55.610;12.100;2022-11-15T09:56:52;100955.91;;;8.57;0.00
22657;BME280;11495;55.610;12.100;2022-11-15T10:04:32;100954.00;;;8.58;0.00
22657;BME280;11495;55.610;12.100;2022-11-15T10:07:02;100946.03;;;8.56;0.00
22657;BME280;11495;55.610;12.100;2022-11-15T10:09:31;100949.06;;;8.60;0.00
22657;BME280;11495;55.610;12.100;2022-11-15T10:12:01;100952.63;;;8.60;0.00
22657;BME280;11495;55.610;12.100;2022-11-15T10:14:28;100948.84;;;8.61;0.00
22657;BME280;11495;55.610;12.100;2022-11-15T10:24:39;100955.37;;;8.60;0.00
22657;BME280;11495;55.610;12.100;2022-11-15T10:27:13;100956.28;;;8.66;0.00
22657;BME280;11495;55.610;12.100;2022-11-15T10:29:42;100948.25;;;8.59;0.00
22657;BME280;11495;55.610;12.100;2022-11-15T10:32:08;100958.38;;;8.59;0.00
22657;BME280;11495;55.610;12.100;2022-11-15T10:34:35;100950.75;;;8.61;0.00
22657;BME280;11495;55.610;12.100;2022-11-15T10:37:01;100957.06;;;8.61;0.00
22657;BME280;11495;55.610;12.100;2022-11-15T10:39:27;100950.13;;;8.54;0.00
22657;BME280;11495;55.610;12.100;2022-11-15T10:41:52;100961.97;;;8.59;0.00
22657;BME280;11495;55.610;12.100;2022-11-15T10:44:19;100957.06;;;8.61;0.00
22657;BME280;11495;55.610;12.100;2022-11-15T10:46:46;100965.50;;;8.55;0.00
22657;BME280;11495;55.610;12.100;2022-11-15T10:49:20;100958.28;;;8.49;0.00
22657;BME280;11495;55.610;12.100;2022-11-15T10:51:47;100960.28;;;8.53;0.00
22657;BME280;11495;55.610;12.100;2022-11-15T10:54:13;100965.75;;;8.53;0.00
22657;BME280;11495;55.610;12.100;2022-11-15T10:56:41;100957.75;;;8.52;0.00
22657;BME280;11495;55.610;12.100;2022-11-15T10:59:13;100954.25;;;8.56;0.00
22657;BME280;11495;55.610;12.100;2022-11-15T11:01:47;100951.00;;;8.59;0.00
22657;BME280;11495;55.610;12.100;2022-11-15T11:04:13;100955.37;;;8.60;0.00
22657;BME280;11495;55.610;12.100;2022-11-15T11:11:58;100962.56;;;8.61;0.00
22657;BME280;11495;55.610;12.100;2022-11-15T11:14:42;100961.19;;;8.64;0.00
22657;BME280;11495;55.610;12.100;2022-11-15T11:17:26;100971.91;;;8.65;0.00
22657;BME280;11495;55.610;12.100;2022-11-15T11:20:04;100961.41;;;8.57;0.00
22657;BME280;11495;55.610;12.100;2022-11-15T11:30:24;100957.62;;;8.63;0.00
22657;BME280;11495;55.610;12.100;2022-11-15T11:32:56;100957.62;;;8.63;0.00
22657;BME280;11495;55.610;12.100;2022-11-15T11:37:51;100952.19;;;8.68;0.00
22657;BME280;11495;55.610;12.100;2022-11-15T11:46:03;100946.19;;;8.71;0.00
22657;BME280;11495;55.610;12.100;2022-11-15T11:48:43;100940.09;;;8.64;0.00
22657;BME280;11495;55.610;12.100;2022-11-15T11:51:13;100937.63;;;8.63;0.00
22657;BME280;11495;55.610;12.100;2022-11-15T11:53:52;100932.97;;;8.68;0.00
22657;BME280;11495;55.610;12.100;2022-11-15T11:56:22;100932.75;;;8.70;0.00
22657;BME280;11495;55.610;12.100;2022-11-15T11:58:48;100932.47;;;8.71;0.00
22657;BME280;11495;55.610;12.100;2022-11-15T12:01:17;100935.78;;;8.73;0.00
22657;BME280;11495;55.610;12.100;2022-11-15T12:09:02;100936.47;;;8.86;0.00
22657;BME280;11495;55.610;12.100;2022-11-15T12:14:19;100933.75;;;8.91;0.00
22657;BME280;11495;55.610;12.100;2022-11-15T12:16:47;100925.50;;;8.91;0.00
22657;BME280;11495;55.610;12.100;2022-11-15T12:19:12;100932.37;;;8.93;0.00
22657;BME280;11495;55.610;12.100;2022-11-15T12:24:05;100925.03;;;8.99;0.00
22657;BME280;11495;55.610;12.100;2022-11-15T12:26:37;100928.31;;;9.01;0.00
22657;BME280;11495;55.610;12.100;2022-11-15T12:29:06;100929.16;;;9.01;0.00
22657;BME280;11495;55.610;12.100;2022-11-15T12:31:40;100920.16;;;9.06;0.00
22657;BME280;11495;55.610;12.100;2022-11-15T12:36:44;100916.34;;;9.12;0.00
22657;BME280;11495;55.610;12.100;2022-11-15T12:39:10;100910.59;;;9.14;0.00
22657;BME280;11495;55.610;12.100;2022-11-15T12:41:36;100915.25;;;9.13;0.00
22657;BME280;11495;55.610;12.100;2022-11-15T12:44:02;100913.91;;;9.16;0.00
22657;BME280;11495;55.610;12.100;2022-11-15T12:51:20;100893.09;;;9.20;0.00
22657;BME280;11495;55.610;12.100;2022-11-15T12:53:45;100887.63;;;9.25;0.00
22657;BME280;11495;55.610;12.100;2022-11-15T12:58:49;100896.25;;;9.44;0.00
22657;BME280;11495;55.610;12.100;2022-11-15T13:04:38;100907.84;;;9.56;0.00
22657;BME280;11495;55.610;12.100;2022-11-15T13:06:45;100898.53;;;9.62;0.00
22657;BME280;11495;55.610;12.100;2022-11-15T13:11:55;100905.72;;;9.73;0.00
22657;BME280;11495;55.610;12.100;2022-11-15T13:17:01;100910.44;;;9.83;0.00
22657;BME280;11495;55.610;12.100;2022-11-15T13:19:27;100898.66;;;9.88;0.00
22657;BME280;11495;55.610;12.100;2022-11-15T13:21:52;100895.63;;;9.89;0.00
22657;BME280;11495;55.610;12.100;2022-11-15T13:24:37;100902.81;;;9.95;0.00
22657;BME280;11495;55.610;12.100;2022-11-15T13:27:10;100914.31;;;9.92;0.00
22657;BME280;11495;55.610;12.100;2022-11-15T13:29:35;100912.13;;;9.89;0.00
22657;BME280;11495;55.610;12.100;2022-11-15T13:32:01;100918.16;;;9.86;0.00
22657;BME280;11495;55.610;12.100;2022-11-15T13:34:28;100915.13;;;9.88;0.00
22657;BME280;11495;55.610;12.100;2022-11-15T13:36:54;100915.13;;;9.88;0.00
22657;BME280;11495;55.610;12.100;2022-11-15T13:39:30;100913.50;;;9.92;0.00
22657;BME280;11495;55.610;12.100;2022-11-15T13:41:56;100906.03;;;9.82;0.00
22657;BME280;11495;55.610;12.100;2022-11-15T13:44:23;100907.69;;;9.78;0.00
22657;BME280;11495;55.610;12.100;2022-11-15T13:46:48;100909.06;;;9.80;0.00
22657;BME280;11495;55.610;12.100;2022-11-15T13:49:14;100908.50;;;9.83;0.00
22657;BME280;11495;55.610;12.100;2022-11-15T13:51:49;100895.09;;;9.87;0.00
22657;BME280;11495;55.610;12.100;2022-11-15T13:54:20;100900.03;;;9.85;0.00
22657;BME280;11495;55.610;12.100;2022-11-15T13:56:52;100898.91;;;9.81;0.00
22657;BME280;11495;55.610;12.100;2022-11-15T13:59:33;100899.44;;;9.78;0.00
22657;BME280;11495;55.610;12.100;2022-11-15T14:02:01;100903.84;;;9.84;0.00
22657;BME280;11495;55.610;12.100;2022-11-15T14:04:27;100907.69;;;9.83;0.00
22657;BME280;11495;55.610;12.100;2022-11-15T14:06:59;100912.09;;;9.84;0.00
22657;BME280;11495;55.610;12.100;2022-11-15T14:09:33;100902.47;;;9.81;0.00
22657;BME280;11495;55.610;12.100;2022-11-15T14:11:59;100894.50;;;9.80;0.00
22657;BME280;11495;55.610;12.100;2022-11-15T14:14:27;100896.41;;;9.79;0.00
22657;BME280;11495;55.610;12.100;2022-11-15T14:16:54;100891.75;;;9.80;0.00
22657;BME280;11495;55.610;12.100;2022-11-15T14:24:29;100906.00;;;9.72;0.00
22657;BME280;11495;55.610;12.100;2022-11-15T14:26:56;100907.38;;;9.69;0.00
22657;BME280;11495;55.610;12.100;2022-11-15T14:29:25;100912.88;;;9.69;0.00
22657;BME280;11495;55.610;12.100;2022-11-15T14:31:50;100914.50;;;9.70;0.00
22657;BME280;11495;55.610;12.100;2022-11-15T14:34:16;100910.12;;;9.69;0.00
22657;BME280;11495;55.610;12.100;2022-11-15T14:36:41;100911.22;;;9.68;0.00
22657;BME280;11495;55.610;12.100;2022-11-15T14:39:07;100910.94;;;9.70;0.00
22657;BME280;11495;55.610;12.100;2022-11-15T14:41:36;100897.47;;;9.68;0.00
22657;BME280;11495;55.610;12.100;2022-11-15T14:44:03;100902.41;;;9.66;0.00
22657;BME280;11495;55.610;12.100;2022-11-15T14:46:28;100900.19;;;9.63;0.00
22657;BME280;11495;55.610;12.100;2022-11-15T14:48:54;100903.50;;;9.65;0.00
22657;BME280;11495;55.610;12.100;2022-11-15T14:51:19;100898.00;;;9.65;0.00